Time;durP1;ratioP1;P1;durP2;ratioP2;P2;SDS_P1;SDS_P2;PMS_P1;PMS_P2;Temp;Humidity;BMP_temperature;BMP_pressure;BME280_temperature;BME280_humidity;BME280_pressure;Samples;Min_cycle;Max_cycle;Signal;HPM_P1;HPM_P2
2022/03/13 00:00:45;;;;;;;81.97;31.05;;;;;;;;;;4953290;28;100242;-71
2022/03/13 00:03:16;;;;;;;109.07;37.25;;;;;;;;;;4968725;28;101136;-71
2022/03/13 00:05:45;;;;;;;92.00;32.90;;;;;;;;;;4968624;28;99997;-71
2022/03/13 00:08:27;;;;;;;86.15;29.88;;;;;;;;;;4967853;28;100093;-70
2022/03/13 00:11:17;;;;;;;97.25;33.00;;;;;;;;;;4968600;28;100432;-71
2022/03/13 00:13:51;;;;;;;99.07;35.78;;;;;;;;;;4952440;28;100574;-71
2022/03/13 00:16:20;;;;;;;93.75;33.83;;;;;;;;;;4968728;28;100057;-71
2022/03/13 00:18:55;;;;;;;80.97;29.85;;;;;;;;;;4968496;28;100047;-72
2022/03/13 00:21:45;;;;;;;87.55;31.48;;;;;;;;;;4968718;28;100566;-72
2022/03/13 00:24:12;;;;;;;92.57;33.53;;;;;;;;;;4952382;28;100800;-72
2022/03/13 00:26:38;;;;;;;94.97;34.28;;;;;;;;;;4969232;28;100243;-72
2022/03/13 00:29:06;;;;;;;83.72;30.67;;;;;;;;;;4969565;28;100025;-72
2022/03/13 00:31:34;;;;;;;115.88;39.15;;;;;;;;;;4967711;28;100474;-71
2022/03/13 00:34:01;;;;;;;102.18;39.55;;;;;;;;;;4968606;28;100648;-72
2022/03/13 00:36:29;;;;;;;94.13;35.00;;;;;;;;;;4968172;28;100194;-71
2022/03/13 00:39:03;;;;;;;89.45;31.35;;;;;;;;;;4969512;28;100077;-71
2022/03/13 00:41:30;;;;;;;104.22;35.58;;;;;;;;;;4983725;28;100569;-72
2022/03/13 00:44:00;;;;;;;107.97;37.90;;;;;;;;;;4949538;28;100557;-71
2022/03/13 00:46:32;;;;;;;103.88;36.53;;;;;;;;;;4967116;28;100256;-71
2022/03/13 00:48:59;;;;;;;84.32;32.92;;;;;;;;;;4969514;28;99878;-71
2022/03/13 00:51:26;;;;;;;86.40;32.08;;;;;;;;;;4968322;28;100236;-71
2022/03/13 00:53:53;;;;;;;58.20;25.70;;;;;;;;;;4967344;28;100599;-70
2022/03/13 00:56:19;;;;;;;80.07;28.35;;;;;;;;;;4968011;28;100858;-71
2022/03/13 00:58:46;;;;;;;86.50;28.58;;;;;;;;;;4969679;28;100017;-70
2022/03/13 01:01:18;;;;;;;83.68;30.77;;;;;;;;;;4968058;28;101315;-71
2022/03/13 01:03:51;;;;;;;79.03;30.38;;;;;;;;;;4952497;28;100610;-71
2022/03/13 01:06:19;;;;;;;95.35;35.03;;;;;;;;;;4951617;28;100255;-70
2022/03/13 01:08:49;;;;;;;96.60;32.92;;;;;;;;;;4951652;28;100311;-70
2022/03/13 01:11:18;;;;;;;83.43;29.17;;;;;;;;;;4967038;28;100209;-71
2022/03/13 01:13:45;;;;;;;87.93;32.90;;;;;;;;;;4935856;28;100562;-71
2022/03/13 01:16:19;;;;;;;108.68;38.00;;;;;;;;;;4962953;28;101069;-71
2022/03/13 01:18:49;;;;;;;103.07;35.58;;;;;;;;;;4969051;28;99986;-71
2022/03/13 01:21:15;;;;;;;77.28;28.35;;;;;;;;;;4967631;28;100327;-72
2022/03/13 01:24:05;;;;;;;71.35;28.05;;;;;;;;;;4950296;28;101147;-71
2022/03/13 01:26:36;;;;;;;69.22;27.65;;;;;;;;;;4969512;28;100014;-71
2022/03/13 01:29:11;;;;;;;83.35;29.50;;;;;;;;;;4967349;28;99868;-72
2022/03/13 01:31:45;;;;;;;78.93;30.90;;;;;;;;;;4950858;28;101505;-71
2022/03/13 01:34:25;;;;;;;83.78;32.63;;;;;;;;;;4968533;28;101178;-71
2022/03/13 01:36:53;;;;;;;70.13;27.58;;;;;;;;;;4950424;28;100122;-71
2022/03/13 01:39:20;;;;;;;76.60;28.88;;;;;;;;;;4969031;28;102030;-72
2022/03/13 01:41:48;;;;;;;82.18;27.77;;;;;;;;;;4965968;28;103105;-71
2022/03/13 01:44:15;;;;;;;67.30;27.15;;;;;;;;;;4967173;28;101813;-71
2022/03/13 01:46:42;;;;;;;73.10;26.40;;;;;;;;;;4971314;28;100740;-72
2022/03/13 01:49:10;;;;;;;68.95;24.65;;;;;;;;;;4965754;28;100094;-71
2022/03/13 01:51:37;;;;;;;85.38;32.47;;;;;;;;;;4970647;28;100389;-71
2022/03/13 01:54:11;;;;;;;69.95;26.25;;;;;;;;;;4970906;28;100661;-71
2022/03/13 01:56:38;;;;;;;63.72;23.25;;;;;;;;;;4971965;28;100191;-72
2022/03/13 01:59:09;;;;;;;69.95;26.10;;;;;;;;;;4955099;28;100456;-71
2022/03/13 02:01:36;;;;;;;57.13;22.17;;;;;;;;;;4971551;28;100181;-71
2022/03/13 02:04:03;;;;;;;59.35;19.65;;;;;;;;;;4970364;28;100573;-71
2022/03/13 02:06:32;;;;;;;42.45;17.98;;;;;;;;;;4970911;28;100004;-71
2022/03/13 02:08:59;;;;;;;42.05;18.05;;;;;;;;;;4971481;28;102757;-70
2022/03/13 02:11:30;;;;;;;38.85;14.70;;;;;;;;;;4970786;28;100498;-71
2022/03/13 02:13:57;;;;;;;34.83;14.10;;;;;;;;;;4970326;28;100562;-71
2022/03/13 02:16:23;;;;;;;39.83;14.68;;;;;;;;;;4971403;28;99981;-71
2022/03/13 02:18:52;;;;;;;41.33;14.43;;;;;;;;;;4953908;28;100240;-71
2022/03/13 02:21:22;;;;;;;39.53;13.70;;;;;;;;;;4969520;28;100206;-71
2022/03/13 02:23:59;;;;;;;30.52;12.70;;;;;;;;;;4954909;28;101096;-71
2022/03/13 02:26:26;;;;;;;42.58;15.65;;;;;;;;;;4953966;28;101389;-71
2022/03/13 02:28:54;;;;;;;32.28;12.82;;;;;;;;;;4971329;28;100120;-71
2022/03/13 02:31:39;;;;;;;34.92;13.15;;;;;;;;;;4937204;28;100246;-71
2022/03/13 02:34:12;;;;;;;48.42;16.55;;;;;;;;;;4954245;28;100781;-71
2022/03/13 02:36:42;;;;;;;39.30;15.57;;;;;;;;;;4921446;28;100209;-72
2022/03/13 02:39:09;;;;;;;40.15;16.40;;;;;;;;;;4971266;28;99971;-71
2022/03/13 02:41:40;;;;;;;43.45;16.80;;;;;;;;;;4969281;28;100360;-71
2022/03/13 02:44:07;;;;;;;45.72;19.15;;;;;;;;;;4969810;28;100579;-70
2022/03/13 02:46:46;;;;;;;44.55;15.32;;;;;;;;;;4969619;28;100100;-71
2022/03/13 02:49:18;;;;;;;37.92;14.77;;;;;;;;;;4953348;28;100082;-71
2022/03/13 02:51:45;;;;;;;39.22;15.93;;;;;;;;;;4969692;28;100377;-71
2022/03/13 02:54:13;;;;;;;44.63;16.85;;;;;;;;;;4937301;28;100564;-71
2022/03/13 02:56:40;;;;;;;48.22;17.95;;;;;;;;;;4968450;28;100090;-71
2022/03/13 02:59:06;;;;;;;42.13;17.45;;;;;;;;;;4970522;28;100067;-71
2022/03/13 03:01:34;;;;;;;36.22;13.65;;;;;;;;;;4969341;28;101219;-71
2022/03/13 03:04:01;;;;;;;40.25;16.35;;;;;;;;;;4952055;28;100756;-72
2022/03/13 03:06:28;;;;;;;58.90;22.38;;;;;;;;;;4968963;28;100157;-71
2022/03/13 03:08:55;;;;;;;39.53;16.20;;;;;;;;;;4969806;28;100286;-72
2022/03/13 03:11:22;;;;;;;47.25;19.08;;;;;;;;;;4969253;28;100226;-71
2022/03/13 03:13:49;;;;;;;40.75;17.30;;;;;;;;;;4969469;28;100704;-72
2022/03/13 03:16:16;;;;;;;39.28;15.25;;;;;;;;;;4968862;28;101740;-73
2022/03/13 03:18:42;;;;;;;40.50;14.55;;;;;;;;;;4968655;28;100192;-72
2022/03/13 03:21:11;;;;;;;34.22;14.40;;;;;;;;;;4968698;28;100312;-72
2022/03/13 03:23:39;;;;;;;36.95;13.98;;;;;;;;;;4952528;28;100578;-72
2022/03/13 03:26:06;;;;;;;36.65;14.73;;;;;;;;;;4968524;28;100280;-72
2022/03/13 03:28:34;;;;;;;34.85;12.95;;;;;;;;;;4969676;28;100135;-71
2022/03/13 03:31:01;;;;;;;34.85;13.65;;;;;;;;;;4952442;28;102708;-71
2022/03/13 03:33:29;;;;;;;28.38;11.68;;;;;;;;;;4969139;28;100833;-71
2022/03/13 03:35:56;;;;;;;37.45;13.60;;;;;;;;;;4970401;28;100056;-72
2022/03/13 03:38:23;;;;;;;44.60;16.88;;;;;;;;;;4970276;28;100110;-71
2022/03/13 03:40:50;;;;;;;37.53;14.30;;;;;;;;;;4951754;28;100863;-72
2022/03/13 03:43:17;;;;;;;31.13;12.15;;;;;;;;;;4968780;28;100583;-71
2022/03/13 03:45:44;;;;;;;32.13;12.68;;;;;;;;;;4952394;28;100084;-71
2022/03/13 03:48:11;;;;;;;34.83;13.93;;;;;;;;;;4969164;28;101353;-71
2022/03/13 03:50:38;;;;;;;34.25;14.07;;;;;;;;;;4952385;28;100165;-71
2022/03/13 03:53:04;;;;;;;26.52;10.80;;;;;;;;;;4952736;28;100590;-71
2022/03/13 03:55:31;;;;;;;34.55;14.15;;;;;;;;;;4969450;28;100247;-71
2022/03/13 03:57:58;;;;;;;32.67;13.65;;;;;;;;;;4968989;28;100018;-72
2022/03/13 04:00:25;;;;;;;36.47;12.18;;;;;;;;;;4968952;28;100347;-72
2022/03/13 04:02:52;;;;;;;32.40;14.00;;;;;;;;;;4969985;28;100558;-71
2022/03/13 04:05:19;;;;;;;25.38;9.25;;;;;;;;;;4968700;28;100117;-71
2022/03/13 04:07:46;;;;;;;34.90;13.35;;;;;;;;;;4969440;28;100083;-71
2022/03/13 04:10:13;;;;;;;32.25;12.68;;;;;;;;;;4968755;28;100805;-72
2022/03/13 04:12:39;;;;;;;27.35;10.75;;;;;;;;;;4967717;28;101082;-71
2022/03/13 04:15:07;;;;;;;23.55;10.57;;;;;;;;;;4968840;28;100183;-72
2022/03/13 04:17:35;;;;;;;17.55;8.45;;;;;;;;;;4968762;28;100129;-72
2022/03/13 04:20:05;;;;;;;24.80;9.43;;;;;;;;;;4951937;28;101634;-72
2022/03/13 04:22:32;;;;;;;21.70;9.20;;;;;;;;;;4968278;28;100625;-71
2022/03/13 04:24:59;;;;;;;22.40;9.93;;;;;;;;;;4952413;28;100144;-71
2022/03/13 04:27:27;;;;;;;19.17;8.48;;;;;;;;;;4968885;28;100094;-72
2022/03/13 04:29:55;;;;;;;21.38;8.93;;;;;;;;;;4969445;28;100513;-71
2022/03/13 04:32:23;;;;;;;26.45;11.48;;;;;;;;;;4967683;28;101038;-72
2022/03/13 04:34:49;;;;;;;22.00;9.05;;;;;;;;;;4967959;28;100237;-72
2022/03/13 04:37:17;;;;;;;20.42;9.07;;;;;;;;;;4952414;28;100138;-72
2022/03/13 04:39:44;;;;;;;23.95;10.43;;;;;;;;;;4969640;28;102469;-72
2022/03/13 04:42:11;;;;;;;23.42;9.48;;;;;;;;;;4968036;28;102931;-72
2022/03/13 04:44:37;;;;;;;23.02;9.85;;;;;;;;;;4968013;28;100184;-72
2022/03/13 04:47:04;;;;;;;21.17;8.95;;;;;;;;;;4951846;28;100093;-72
2022/03/13 04:49:31;;;;;;;32.17;11.68;;;;;;;;;;4969202;28;100174;-71
2022/03/13 04:51:58;;;;;;;23.25;9.95;;;;;;;;;;4968270;28;100579;-74
2022/03/13 04:54:25;;;;;;;35.53;12.98;;;;;;;;;;4968466;28;100098;-71
2022/03/13 04:56:52;;;;;;;35.13;13.77;;;;;;;;;;4969527;28;100047;-72
2022/03/13 04:59:19;;;;;;;26.48;11.18;;;;;;;;;;4950376;28;100853;-72
2022/03/13 05:01:46;;;;;;;37.13;15.50;;;;;;;;;;4968002;28;100516;-72
2022/03/13 05:04:14;;;;;;;35.17;13.30;;;;;;;;;;4967620;28;100051;-73
2022/03/13 05:06:43;;;;;;;33.85;14.70;;;;;;;;;;4966915;28;100176;-72
2022/03/13 05:09:10;;;;;;;32.40;13.93;;;;;;;;;;4967674;28;100290;-72
2022/03/13 05:11:38;;;;;;;44.58;15.93;;;;;;;;;;4967523;28;100826;-72
2022/03/13 05:14:05;;;;;;;41.70;16.52;;;;;;;;;;4968108;28;100141;-71
2022/03/13 05:16:32;;;;;;;34.67;14.63;;;;;;;;;;4966695;28;100211;-71
2022/03/13 05:19:00;;;;;;;32.72;12.75;;;;;;;;;;4969004;28;100494;-72
2022/03/13 05:21:28;;;;;;;39.70;15.18;;;;;;;;;;4970052;28;102874;-71
2022/03/13 05:23:55;;;;;;;39.97;16.95;;;;;;;;;;4970107;28;100107;-72
2022/03/13 05:26:22;;;;;;;45.75;18.77;;;;;;;;;;4971038;28;100206;-72
2022/03/13 05:28:48;;;;;;;43.28;16.70;;;;;;;;;;4955017;28;100216;-72
2022/03/13 05:31:15;;;;;;;44.47;16.40;;;;;;;;;;4972151;28;100539;-72
2022/03/13 05:33:42;;;;;;;48.75;18.27;;;;;;;;;;4971385;28;99883;-72
2022/03/13 05:36:09;;;;;;;53.53;18.70;;;;;;;;;;4971284;28;99970;-72
2022/03/13 05:38:36;;;;;;;41.13;17.55;;;;;;;;;;4970986;28;100452;-73
2022/03/13 05:41:06;;;;;;;41.38;16.60;;;;;;;;;;4971380;28;101244;-72
2022/03/13 05:43:33;;;;;;;47.38;17.88;;;;;;;;;;4939160;28;100140;-72
2022/03/13 05:46:00;;;;;;;39.13;16.95;;;;;;;;;;4938071;28;104301;-72
2022/03/13 05:48:30;;;;;;;40.58;16.77;;;;;;;;;;4967456;28;101806;-72
2022/03/13 05:50:57;;;;;;;42.88;17.40;;;;;;;;;;4968128;28;100614;-72
2022/03/13 05:53:24;;;;;;;41.97;17.80;;;;;;;;;;4952698;28;100029;-72
2022/03/13 05:55:51;;;;;;;46.67;18.25;;;;;;;;;;4968523;28;100077;-72
2022/03/13 05:58:19;;;;;;;40.97;17.05;;;;;;;;;;4952322;28;100204;-72
2022/03/13 06:01:03;;;;;;;39.58;16.73;;;;;;;;;;4969559;28;100545;-72
2022/03/13 06:03:30;;;;;;;40.72;17.80;;;;;;;;;;4970393;28;100174;-72
2022/03/13 06:05:57;;;;;;;68.13;29.30;;;;;;;;;;4971831;28;100459;-72
2022/03/13 06:08:25;;;;;;;49.72;21.00;;;;;;;;;;4954325;28;100158;-72
2022/03/13 06:10:52;;;;;;;50.88;22.13;;;;;;;;;;4970995;28;100636;-74
2022/03/13 06:13:20;;;;;;;42.80;18.63;;;;;;;;;;4969974;28;100123;-72
2022/03/13 06:15:49;;;;;;;39.60;16.10;;;;;;;;;;4954621;28;100157;-72
2022/03/13 06:18:16;;;;;;;30.23;16.05;;;;;;;;;;4970116;28;100799;-72
2022/03/13 06:20:43;;;;;;;34.00;13.60;;;;;;;;;;4937850;28;100733;-71
2022/03/13 06:23:12;;;;;;;36.15;15.35;;;;;;;;;;4954677;28;100084;-71
2022/03/13 06:25:39;;;;;;;35.60;14.73;;;;;;;;;;4971433;28;102149;-71
2022/03/13 06:28:11;;;;;;;30.05;12.98;;;;;;;;;;4970076;28;100580;-71
2022/03/13 06:30:38;;;;;;;40.33;17.40;;;;;;;;;;4969965;28;100587;-71
2022/03/13 06:33:05;;;;;;;28.95;13.00;;;;;;;;;;4953069;28;100126;-72
2022/03/13 06:35:32;;;;;;;23.13;10.55;;;;;;;;;;4971431;28;99965;-72
2022/03/13 06:37:59;;;;;;;20.52;9.52;;;;;;;;;;4948140;28;100477;-72
2022/03/13 06:40:26;;;;;;;20.92;9.65;;;;;;;;;;4971005;28;100634;-71
2022/03/13 06:42:56;;;;;;;19.95;8.65;;;;;;;;;;4971311;28;100013;-72
2022/03/13 06:45:23;;;;;;;21.30;8.52;;;;;;;;;;4937717;28;100020;-72
2022/03/13 06:47:50;;;;;;;17.42;8.25;;;;;;;;;;4969820;28;100131;-72
2022/03/13 06:50:18;;;;;;;15.88;8.20;;;;;;;;;;4952862;28;100750;-73
2022/03/13 06:52:47;;;;;;;17.02;8.25;;;;;;;;;;4954143;28;100189;-72
2022/03/13 06:55:17;;;;;;;16.48;7.18;;;;;;;;;;4970389;28;100180;-72
2022/03/13 06:57:44;;;;;;;22.13;8.20;;;;;;;;;;4970393;28;101227;-73
2022/03/13 07:00:12;;;;;;;23.88;11.43;;;;;;;;;;4969478;28;100575;-73
2022/03/13 07:02:46;;;;;;;21.08;9.95;;;;;;;;;;4969283;28;100052;-72
2022/03/13 07:05:14;;;;;;;19.75;8.32;;;;;;;;;;4969132;28;100168;-72
2022/03/13 07:07:42;;;;;;;22.98;8.95;;;;;;;;;;4969761;28;100269;-72
2022/03/13 07:10:12;;;;;;;17.15;8.90;;;;;;;;;;4969372;28;100681;-72
2022/03/13 07:12:41;;;;;;;18.88;8.48;;;;;;;;;;4969173;28;100182;-72
2022/03/13 07:15:13;;;;;;;18.92;8.93;;;;;;;;;;4937091;28;100120;-72
2022/03/13 07:17:44;;;;;;;19.85;8.57;;;;;;;;;;4969317;28;100289;-73
2022/03/13 07:20:12;;;;;;;16.20;7.90;;;;;;;;;;4952986;28;100583;-73
2022/03/13 07:22:39;;;;;;;16.27;7.93;;;;;;;;;;4969440;28;100195;-72
2022/03/13 07:25:07;;;;;;;13.60;6.00;;;;;;;;;;4952999;28;100029;-71
2022/03/13 07:27:33;;;;;;;15.10;6.40;;;;;;;;;;4951072;28;100477;-71
2022/03/13 07:30:00;;;;;;;14.82;6.25;;;;;;;;;;4968836;28;100503;-71
2022/03/13 07:32:27;;;;;;;18.25;8.77;;;;;;;;;;4969476;28;100087;-71
2022/03/13 07:34:54;;;;;;;12.90;5.80;;;;;;;;;;4969040;28;100200;-70
2022/03/13 07:37:21;;;;;;;13.68;6.30;;;;;;;;;;4969837;28;101319;-70
2022/03/13 07:39:48;;;;;;;19.30;7.40;;;;;;;;;;4968861;28;100653;-71
2022/03/13 07:42:16;;;;;;;12.48;5.32;;;;;;;;;;4969486;28;100101;-71
2022/03/13 07:44:43;;;;;;;15.70;5.22;;;;;;;;;;4969264;28;100148;-73
2022/03/13 07:47:10;;;;;;;14.05;6.30;;;;;;;;;;4968860;28;100148;-72
2022/03/13 07:49:37;;;;;;;16.70;6.30;;;;;;;;;;4951579;28;101477;-72
2022/03/13 07:52:04;;;;;;;11.68;5.75;;;;;;;;;;4951349;28;100138;-72
2022/03/13 07:54:31;;;;;;;15.43;6.60;;;;;;;;;;4969827;28;100163;-72
2022/03/13 07:56:58;;;;;;;15.18;6.40;;;;;;;;;;4968692;28;100449;-72
2022/03/13 07:59:25;;;;;;;16.85;7.00;;;;;;;;;;4968836;28;100500;-73
2022/03/13 08:01:52;;;;;;;13.63;6.18;;;;;;;;;;4968973;28;100173;-72
2022/03/13 08:04:19;;;;;;;19.38;6.28;;;;;;;;;;4967816;28;101362;-72
2022/03/13 08:06:45;;;;;;;15.55;5.93;;;;;;;;;;4968390;28;100108;-72
2022/03/13 08:09:12;;;;;;;14.27;6.47;;;;;;;;;;4950961;28;101375;-72
2022/03/13 08:11:39;;;;;;;15.48;6.00;;;;;;;;;;4967662;28;100237;-72
2022/03/13 08:14:10;;;;;;;12.02;5.78;;;;;;;;;;4968725;28;100640;-72
2022/03/13 08:16:36;;;;;;;12.25;4.90;;;;;;;;;;4966638;28;100413;-72
2022/03/13 08:19:05;;;;;;;13.32;6.00;;;;;;;;;;4965565;28;102019;-72
2022/03/13 08:21:32;;;;;;;13.60;6.55;;;;;;;;;;4967673;28;100140;-73
2022/03/13 08:23:58;;;;;;;11.90;5.82;;;;;;;;;;4968515;28;100058;-72
2022/03/13 08:26:27;;;;;;;14.93;5.53;;;;;;;;;;4965639;28;100168;-72
2022/03/13 08:28:54;;;;;;;12.80;4.95;;;;;;;;;;4968220;28;100572;-72
2022/03/13 08:31:20;;;;;;;11.45;5.55;;;;;;;;;;4951088;28;100348;-72
2022/03/13 08:33:47;;;;;;;10.68;5.20;;;;;;;;;;4967287;28;100164;-72
2022/03/13 08:36:14;;;;;;;9.10;4.38;;;;;;;;;;4951161;28;100153;-72
2022/03/13 08:38:41;;;;;;;9.02;4.32;;;;;;;;;;4968377;28;100809;-72
2022/03/13 08:41:08;;;;;;;10.93;4.70;;;;;;;;;;4967927;28;100097;-72
2022/03/13 08:43:35;;;;;;;12.75;5.18;;;;;;;;;;4968674;28;100083;-73
2022/03/13 08:46:02;;;;;;;9.20;4.18;;;;;;;;;;4967216;28;100173;-72
2022/03/13 08:48:29;;;;;;;9.23;4.35;;;;;;;;;;4950133;28;101968;-72
2022/03/13 08:50:56;;;;;;;7.60;4.38;;;;;;;;;;4968431;28;100168;-73
2022/03/13 08:53:24;;;;;;;8.45;4.47;;;;;;;;;;4951384;28;100951;-72
2022/03/13 08:55:52;;;;;;;10.80;4.75;;;;;;;;;;4971255;28;100122;-73
2022/03/13 08:58:19;;;;;;;11.10;5.13;;;;;;;;;;4971764;28;100618;-73
2022/03/13 09:00:46;;;;;;;10.60;4.50;;;;;;;;;;4973078;28;99926;-70
2022/03/13 09:03:13;;;;;;;8.80;4.05;;;;;;;;;;4971980;28;99974;-73
2022/03/13 09:05:40;;;;;;;12.82;5.75;;;;;;;;;;4971609;28;100182;-70
2022/03/13 09:08:07;;;;;;;9.73;4.93;;;;;;;;;;4972091;28;100568;-70
2022/03/13 09:10:34;;;;;;;9.88;4.82;;;;;;;;;;4971292;28;100137;-73
2022/03/13 09:13:01;;;;;;;9.30;4.47;;;;;;;;;;4972404;28;99985;-71
2022/03/13 09:15:28;;;;;;;12.50;4.78;;;;;;;;;;4972453;28;100831;-70
2022/03/13 09:17:55;;;;;;;11.25;5.88;;;;;;;;;;4970942;28;101141;-71
2022/03/13 09:20:22;;;;;;;11.05;5.68;;;;;;;;;;4971112;28;100191;-71
2022/03/13 09:22:49;;;;;;;13.05;5.82;;;;;;;;;;4954809;28;100165;-71
2022/03/13 09:25:18;;;;;;;13.75;5.95;;;;;;;;;;4938505;28;100248;-71
2022/03/13 09:27:45;;;;;;;12.88;6.35;;;;;;;;;;4971895;28;101320;-72
2022/03/13 09:30:12;;;;;;;14.57;6.63;;;;;;;;;;4971427;28;100219;-73
2022/03/13 09:32:40;;;;;;;13.30;6.53;;;;;;;;;;4967780;28;100181;-73
2022/03/13 09:35:07;;;;;;;15.18;6.60;;;;;;;;;;4971842;28;100124;-72
2022/03/13 09:37:37;;;;;;;13.15;6.47;;;;;;;;;;4971367;28;101077;-73
2022/03/13 09:40:14;;;;;;;10.63;5.57;;;;;;;;;;4969768;28;100184;-72
2022/03/13 09:42:42;;;;;;;12.70;5.93;;;;;;;;;;4970724;28;100055;-73
2022/03/13 09:45:12;;;;;;;11.27;5.82;;;;;;;;;;4971422;28;100449;-72
2022/03/13 09:47:39;;;;;;;12.02;6.18;;;;;;;;;;4970037;28;100706;-72
2022/03/13 09:50:09;;;;;;;13.23;6.15;;;;;;;;;;4970581;28;100624;-72
2022/03/13 09:52:37;;;;;;;11.50;5.78;;;;;;;;;;4969434;28;100171;-72
2022/03/13 09:55:05;;;;;;;23.20;10.23;;;;;;;;;;4969829;28;100291;-72
2022/03/13 09:57:34;;;;;;;27.85;12.98;;;;;;;;;;4970495;28;100675;-72
2022/03/13 10:00:06;;;;;;;29.27;12.85;;;;;;;;;;4969131;28;100153;-72
2022/03/13 10:02:39;;;;;;;27.98;13.38;;;;;;;;;;4954679;28;100217;-72
2022/03/13 10:05:08;;;;;;;29.65;12.35;;;;;;;;;;4969945;28;100101;-71
2022/03/13 10:07:55;;;;;;;23.50;11.50;;;;;;;;;;4953122;28;100570;-73
2022/03/13 10:10:23;;;;;;;22.33;10.32;;;;;;;;;;4969149;28;100074;-72
2022/03/13 10:12:50;;;;;;;27.30;12.70;;;;;;;;;;4970153;28;100093;-73
2022/03/13 10:15:17;;;;;;;24.60;11.35;;;;;;;;;;4952326;28;103415;-73
2022/03/13 10:17:44;;;;;;;28.00;12.60;;;;;;;;;;4970796;28;100654;-72
2022/03/13 10:20:26;;;;;;;23.67;9.93;;;;;;;;;;4969077;28;100251;-73
2022/03/13 10:23:00;;;;;;;18.30;10.53;;;;;;;;;;4970159;28;100324;-72
2022/03/13 10:25:32;;;;;;;24.40;10.63;;;;;;;;;;4968510;28;101394;-72
2022/03/13 10:28:18;;;;;;;22.73;10.43;;;;;;;;;;4970910;28;100692;-72
2022/03/13 10:31:05;;;;;;;27.85;12.25;;;;;;;;;;4969464;28;100156;-72
2022/03/13 10:33:52;;;;;;;25.92;12.15;;;;;;;;;;4968089;28;100014;-73
2022/03/13 10:36:21;;;;;;;27.02;12.32;;;;;;;;;;4969260;28;100152;-73
2022/03/13 10:38:49;;;;;;;31.08;12.82;;;;;;;;;;4970972;28;100689;-73
2022/03/13 10:41:16;;;;;;;24.45;11.43;;;;;;;;;;4986134;28;100063;-74
2022/03/13 10:43:51;;;;;;;27.70;12.80;;;;;;;;;;4971048;28;101358;-70
2022/03/13 10:46:31;;;;;;;29.13;14.70;;;;;;;;;;4970023;28;100227;-71
2022/03/13 10:48:59;;;;;;;27.45;13.82;;;;;;;;;;4970125;28;100642;-71
2022/03/13 10:51:36;;;;;;;38.47;14.52;;;;;;;;;;4969750;28;100108;-72
2022/03/13 10:54:04;;;;;;;34.33;15.15;;;;;;;;;;4948639;28;101247;-72
2022/03/13 10:56:32;;;;;;;32.22;13.88;;;;;;;;;;4968786;28;103061;-72
2022/03/13 10:59:14;;;;;;;24.38;12.23;;;;;;;;;;4970294;28;100785;-72
2022/03/13 11:01:41;;;;;;;31.15;14.02;;;;;;;;;;4970764;28;100177;-72
2022/03/13 11:04:09;;;;;;;30.48;13.75;;;;;;;;;;4971370;28;100084;-71
2022/03/13 11:06:36;;;;;;;26.58;13.65;;;;;;;;;;4970691;28;100346;-71
2022/03/13 11:09:03;;;;;;;26.42;12.32;;;;;;;;;;4985165;28;101090;-71
2022/03/13 11:11:32;;;;;;;22.45;12.00;;;;;;;;;;4969906;28;100210;-71
2022/03/13 11:14:01;;;;;;;29.90;13.68;;;;;;;;;;4970623;28;99977;-71
2022/03/13 11:16:32;;;;;;;22.27;10.98;;;;;;;;;;4969436;28;100215;-72
2022/03/13 11:19:05;;;;;;;30.95;12.45;;;;;;;;;;4936823;28;100619;-71
2022/03/13 11:21:32;;;;;;;25.50;11.50;;;;;;;;;;4970365;28;100206;-73
2022/03/13 11:24:03;;;;;;;26.65;10.82;;;;;;;;;;4937065;28;100053;-76
2022/03/13 11:26:31;;;;;;;22.63;11.70;;;;;;;;;;4953567;28;100245;-72
2022/03/13 11:28:58;;;;;;;21.08;9.05;;;;;;;;;;4953169;28;100830;-72
2022/03/13 11:31:38;;;;;;;22.48;10.55;;;;;;;;;;4970553;28;99962;-73
2022/03/13 11:34:13;;;;;;;24.50;11.77;;;;;;;;;;4969200;28;100127;-73
2022/03/13 11:36:42;;;;;;;28.85;12.65;;;;;;;;;;4969738;28;100433;-72
2022/03/13 11:39:10;;;;;;;31.30;13.60;;;;;;;;;;4969203;28;100652;-73
2022/03/13 11:41:38;;;;;;;25.48;11.68;;;;;;;;;;4969880;28;100127;-72
2022/03/13 11:44:18;;;;;;;28.35;12.65;;;;;;;;;;4970520;28;100048;-73
2022/03/13 11:46:49;;;;;;;30.05;14.43;;;;;;;;;;4969943;28;100335;-74
2022/03/13 11:49:31;;;;;;;37.45;14.90;;;;;;;;;;4968875;28;100564;-72
2022/03/13 11:52:13;;;;;;;29.23;14.15;;;;;;;;;;4971185;28;100054;-72
2022/03/13 11:54:50;;;;;;;32.03;14.10;;;;;;;;;;4970376;28;100076;-76
2022/03/13 11:57:18;;;;;;;31.38;13.90;;;;;;;;;;4968723;28;100234;-72
2022/03/13 11:59:49;;;;;;;32.92;14.38;;;;;;;;;;4969311;28;100621;-72
2022/03/13 12:02:48;;;;;;;23.83;12.70;;;;;;;;;;4969340;28;100015;-73
2022/03/13 12:05:30;;;;;;;29.33;12.55;;;;;;;;;;4978950;28;100101;-72
2022/03/13 12:08:05;;;;;;;29.08;12.27;;;;;;;;;;4969279;28;100254;-72
2022/03/13 12:10:42;;;;;;;24.80;12.48;;;;;;;;;;4969629;28;100611;-72
2022/03/13 12:13:12;;;;;;;25.92;11.90;;;;;;;;;;4966015;28;100062;-72
2022/03/13 12:15:42;;;;;;;24.63;11.27;;;;;;;;;;4968743;28;100068;-72
2022/03/13 12:18:27;;;;;;;22.88;10.82;;;;;;;;;;4984716;28;100149;-72
2022/03/13 12:21:10;;;;;;;20.92;9.50;;;;;;;;;;4953208;28;101958;-72
2022/03/13 12:23:38;;;;;;;19.85;10.35;;;;;;;;;;4968790;28;100169;-72
2022/03/13 12:26:18;;;;;;;22.25;10.43;;;;;;;;;;4952492;28;100147;-72
2022/03/13 12:28:49;;;;;;;24.75;11.15;;;;;;;;;;4967263;28;100292;-72
2022/03/13 12:31:16;;;;;;;23.98;11.40;;;;;;;;;;4968807;28;100586;-72
2022/03/13 12:33:46;;;;;;;24.50;11.38;;;;;;;;;;4968621;28;100207;-73
2022/03/13 12:36:14;;;;;;;23.88;11.50;;;;;;;;;;4968243;28;100039;-72
2022/03/13 12:38:45;;;;;;;23.67;11.52;;;;;;;;;;4968271;28;100463;-73
2022/03/13 12:41:12;;;;;;;23.50;11.68;;;;;;;;;;4969380;28;102341;-72
2022/03/13 12:43:46;;;;;;;26.02;12.60;;;;;;;;;;4968315;28;100117;-73
2022/03/13 12:46:14;;;;;;;24.10;11.52;;;;;;;;;;4970043;28;100113;-72
2022/03/13 12:48:56;;;;;;;29.35;12.57;;;;;;;;;;4952169;28;100217;-72
2022/03/13 12:51:34;;;;;;;28.05;12.07;;;;;;;;;;4967771;28;101278;-73
2022/03/13 12:54:03;;;;;;;25.55;11.50;;;;;;;;;;4969085;28;100037;-72
2022/03/13 12:56:30;;;;;;;26.05;11.40;;;;;;;;;;4952275;28;100172;-73
2022/03/13 12:58:58;;;;;;;23.50;11.88;;;;;;;;;;4969275;28;100366;-72
2022/03/13 13:01:24;;;;;;;23.60;10.82;;;;;;;;;;4969003;28;101142;-72
2022/03/13 13:03:52;;;;;;;20.20;10.00;;;;;;;;;;4967927;28;100292;-72
2022/03/13 13:06:29;;;;;;;20.38;9.18;;;;;;;;;;4968330;28;100022;-72
2022/03/13 13:08:56;;;;;;;20.55;9.73;;;;;;;;;;4967948;28;101806;-73
2022/03/13 13:11:35;;;;;;;17.35;8.70;;;;;;;;;;4935704;28;100555;-72
2022/03/13 13:14:02;;;;;;;19.25;8.93;;;;;;;;;;4969488;28;100147;-73
2022/03/13 13:16:32;;;;;;;22.02;9.52;;;;;;;;;;4967883;28;100118;-72
2022/03/13 13:18:59;;;;;;;18.10;8.60;;;;;;;;;;4967315;28;100240;-73
2022/03/13 13:21:33;;;;;;;19.15;8.52;;;;;;;;;;4951525;28;103445;-73
2022/03/13 13:24:00;;;;;;;14.25;7.95;;;;;;;;;;4969082;28;100092;-73
2022/03/13 13:26:40;;;;;;;16.92;7.35;;;;;;;;;;4969461;28;99974;-72
2022/03/13 13:29:37;;;;;;;12.23;5.95;;;;;;;;;;4968518;28;100246;-73
2022/03/13 13:32:20;;;;;;;14.43;6.93;;;;;;;;;;4968382;28;100563;-73
2022/03/13 13:35:09;;;;;;;14.00;6.32;;;;;;;;;;4968832;28;99979;-73
2022/03/13 13:37:55;;;;;;;15.93;7.22;;;;;;;;;;4967644;28;100282;-72
2022/03/13 13:40:22;;;;;;;18.10;7.50;;;;;;;;;;4968562;28;100283;-72
2022/03/13 13:42:56;;;;;;;18.02;8.43;;;;;;;;;;4969741;28;100567;-73
2022/03/13 13:45:23;;;;;;;17.20;8.10;;;;;;;;;;4969778;28;100091;-73
2022/03/13 13:47:50;;;;;;;15.30;7.28;;;;;;;;;;4971653;28;100271;-73
2022/03/13 13:50:22;;;;;;;20.40;9.45;;;;;;;;;;4969102;28;100414;-72
2022/03/13 13:52:59;;;;;;;15.38;7.72;;;;;;;;;;4953647;28;103820;-73
2022/03/13 13:55:26;;;;;;;21.88;10.13;;;;;;;;;;4971608;28;100056;-72
2022/03/13 13:58:12;;;;;;;23.65;11.50;;;;;;;;;;4968743;28;101467;-73
2022/03/13 14:00:39;;;;;;;24.05;10.05;;;;;;;;;;4969635;28;100228;-72
2022/03/13 14:03:06;;;;;;;20.55;9.68;;;;;;;;;;4970049;28;100711;-73
2022/03/13 14:05:33;;;;;;;20.33;10.27;;;;;;;;;;4953939;28;101574;-73
2022/03/13 14:08:19;;;;;;;20.75;9.27;;;;;;;;;;4969363;28;100125;-72
2022/03/13 14:10:46;;;;;;;23.17;10.75;;;;;;;;;;4970185;28;100490;-72
2022/03/13 14:13:14;;;;;;;25.95;10.10;;;;;;;;;;4969766;28;102525;-73
2022/03/13 14:15:41;;;;;;;21.48;10.88;;;;;;;;;;4953478;28;100208;-73
2022/03/13 14:18:08;;;;;;;23.65;9.98;;;;;;;;;;4971315;28;100061;-73
2022/03/13 14:20:36;;;;;;;23.83;10.02;;;;;;;;;;4969797;28;100259;-72
2022/03/13 14:23:03;;;;;;;23.05;9.90;;;;;;;;;;4969112;28;101607;-73